createdAt,value
2024-04-19T00:00:11.049Z,101137.00
2024-04-19T00:02:37.725Z,101145.13
2024-04-19T00:05:04.851Z,101136.56
2024-04-19T00:07:31.491Z,101121.44
2024-04-19T00:09:58.231Z,101118.84
2024-04-19T00:12:24.863Z,101118.47
2024-04-19T00:14:51.483Z,101108.81
2024-04-19T00:17:18.175Z,101102.38
2024-04-19T00:19:46.564Z,101111.31
2024-04-19T00:22:13.210Z,101104.22
2024-04-19T00:24:39.831Z,101106.69
2024-04-19T00:27:07.125Z,101092.47
2024-04-19T00:29:33.742Z,101080.16
2024-04-19T00:32:00.540Z,101074.88
2024-04-19T00:34:27.199Z,101081.22
2024-04-19T00:36:53.869Z,101075.25
2024-04-19T00:39:20.527Z,101078.44
2024-04-19T00:41:47.132Z,101062.09
2024-04-19T00:44:13.723Z,101058.38
2024-04-19T00:46:42.581Z,101057.16
2024-04-19T00:49:09.666Z,101059.13
2024-04-19T00:51:36.438Z,101049.69
2024-04-19T00:54:03.111Z,101045.56
2024-04-19T00:56:31.973Z,101038.97
2024-04-19T00:58:58.747Z,101016.38
2024-04-19T01:01:26.198Z,101011.28
2024-04-19T01:03:53.310Z,101008.66
2024-04-19T01:06:20.066Z,101009.25
2024-04-19T01:08:46.987Z,101010.59
2024-04-19T01:11:13.825Z,100994.22
2024-04-19T01:13:40.513Z,100994.59
2024-04-19T01:16:07.299Z,100990.56
2024-04-19T01:18:34.012Z,101000.28
2024-04-19T01:21:01.773Z,100994.06
2024-04-19T01:23:28.920Z,100991.91
2024-04-19T01:25:55.626Z,100988.78
2024-04-19T01:28:22.174Z,100985.72
2024-04-19T01:30:49.138Z,100984.47
2024-04-19T01:33:15.892Z,100981.97
2024-04-19T01:35:42.504Z,100984.19
2024-04-19T01:38:09.066Z,100967.50
2024-04-19T01:40:35.701Z,100976.69
2024-04-19T01:43:02.357Z,100967.25
2024-04-19T01:45:28.872Z,100955.56
2024-04-19T01:47:56.519Z,100963.06
2024-04-19T01:50:23.142Z,100957.06
2024-04-19T01:52:49.630Z,100959.41
2024-04-19T01:55:17.893Z,100971.56
2024-04-19T01:57:44.922Z,100962.28
2024-04-19T02:00:12.060Z,100973.41
2024-04-19T02:02:38.578Z,100973.63
2024-04-19T02:05:05.345Z,100961.28
2024-04-19T02:07:31.825Z,100976.06
2024-04-19T02:09:58.361Z,100961.13
2024-04-19T02:12:24.934Z,100972.34
2024-04-19T02:14:52.376Z,100961.38
2024-04-19T02:17:18.887Z,100950.41
2024-04-19T02:19:45.400Z,100952.13
2024-04-19T02:22:11.883Z,100950.66
2024-04-19T02:24:38.494Z,100939.31
2024-04-19T02:27:07.601Z,100937.03
2024-04-19T02:29:52.804Z,100932.63
2024-04-19T02:32:19.341Z,100932.28
2024-04-19T02:34:48.075Z,100930.13
2024-04-19T02:37:15.118Z,100938.13
2024-04-19T02:39:41.861Z,100955.84
2024-04-19T02:42:08.449Z,100934.84
2024-04-19T02:44:34.936Z,100938.47
2024-04-19T02:47:01.520Z,100938.19
2024-04-19T02:49:28.046Z,100927.72
2024-04-19T02:51:54.601Z,100927.00
2024-04-19T02:54:21.100Z,100920.97
2024-04-19T02:56:47.622Z,100925.63
2024-04-19T02:59:14.121Z,100900.13
2024-04-19T03:01:40.690Z,100900.66
2024-04-19T03:04:07.414Z,100891.19
2024-04-19T03:06:34.109Z,100899.34
2024-04-19T03:09:03.371Z,100882.00
2024-04-19T03:11:29.906Z,100871.34
2024-04-19T03:13:58.899Z,100869.97
2024-04-19T03:16:25.579Z,100856.19
2024-04-19T03:18:52.094Z,100857.63
2024-04-19T03:21:18.680Z,100857.88
2024-04-19T03:23:45.179Z,100851.59
2024-04-19T03:26:11.715Z,100840.31
2024-04-19T03:28:38.189Z,100841.44
2024-04-19T03:31:09.330Z,100840.53
2024-04-19T03:33:36.012Z,100827.25
2024-04-19T03:36:09.382Z,100824.16
2024-04-19T03:38:36.056Z,100806.22
2024-04-19T03:41:02.635Z,100794.81
2024-04-19T03:43:41.755Z,100804.66
2024-04-19T03:46:08.844Z,100799.09
2024-04-19T03:48:35.436Z,100788.91
2024-04-19T03:51:02.030Z,100778.25
2024-04-19T03:53:28.514Z,100773.25
2024-04-19T03:55:55.038Z,100771.66
2024-04-19T03:58:21.541Z,100777.59
2024-04-19T04:00:48.428Z,100766.34
2024-04-19T04:03:15.136Z,100766.00
2024-04-19T04:05:41.637Z,100768.22
2024-04-19T04:08:08.236Z,100756.47
2024-04-19T04:10:35.992Z,100754.31
2024-04-19T04:13:02.611Z,100751.91
2024-04-19T04:15:29.180Z,100756.47
2024-04-19T04:17:55.773Z,100742.97
2024-04-19T04:20:22.351Z,100749.03
2024-04-19T04:22:48.856Z,100743.94
2024-04-19T04:25:15.470Z,100743.78
2024-04-19T04:27:42.166Z,100722.47
2024-04-19T04:30:09.417Z,100719.16
2024-04-19T04:32:35.981Z,100723.53
2024-04-19T04:35:02.506Z,100720.97
2024-04-19T04:37:30.229Z,100720.03
2024-04-19T04:39:56.861Z,100717.44
2024-04-19T04:42:23.460Z,100700.63
2024-04-19T04:44:50.041Z,100714.78
2024-04-19T04:47:16.696Z,100686.38
2024-04-19T04:49:43.396Z,100708.63
2024-04-19T04:52:09.950Z,100691.44
2024-04-19T04:54:36.488Z,100698.81
2024-04-19T04:57:08.505Z,100700.41
2024-04-19T04:59:35.944Z,100687.34
2024-04-19T05:02:03.082Z,100689.66
2024-04-19T05:04:29.969Z,100681.91
2024-04-19T05:06:56.540Z,100688.63
2024-04-19T05:09:23.105Z,100658.34
2024-04-19T05:11:49.620Z,100666.56
2024-04-19T05:14:16.087Z,100678.09
2024-04-19T05:16:42.659Z,100669.16
2024-04-19T05:19:09.169Z,100661.66
2024-04-19T05:21:35.740Z,100665.78
2024-04-19T05:24:02.254Z,100641.34
2024-04-19T05:26:28.756Z,100655.59
2024-04-19T05:28:55.214Z,100649.78
2024-04-19T05:31:21.703Z,100649.91
2024-04-19T05:33:50.787Z,100634.78
2024-04-19T05:36:17.301Z,100638.75
2024-04-19T05:38:43.841Z,100619.13
2024-04-19T05:41:10.362Z,100614.81
2024-04-19T05:43:36.907Z,100610.47
2024-04-19T05:46:03.652Z,100602.53
2024-04-19T05:48:30.533Z,100606.28
2024-04-19T05:50:57.048Z,100610.22
2024-04-19T05:53:23.592Z,100603.25
2024-04-19T05:55:50.091Z,100596.88
2024-04-19T05:58:16.719Z,100598.47
2024-04-19T06:00:43.347Z,100592.06
2024-04-19T06:03:09.899Z,100589.91
2024-04-19T06:05:36.598Z,100579.69
2024-04-19T06:08:03.116Z,100567.44
2024-04-19T06:10:30.315Z,100574.88
2024-04-19T06:12:56.830Z,100563.22
2024-04-19T06:15:23.370Z,100564.06
2024-04-19T06:17:50.093Z,100557.19
2024-04-19T06:20:16.746Z,100557.44
2024-04-19T06:22:43.426Z,100540.38
2024-04-19T06:25:10.301Z,100535.56
2024-04-19T06:27:36.832Z,100516.06
2024-04-19T06:30:03.565Z,100522.97
2024-04-19T06:32:30.099Z,100512.97
2024-04-19T06:34:57.089Z,100496.22
2024-04-19T06:37:23.664Z,100514.91
2024-04-19T06:39:58.985Z,100490.63
2024-04-19T06:42:32.074Z,100488.44
2024-04-19T06:44:58.676Z,100480.16
2024-04-19T06:47:25.347Z,100484.69
2024-04-19T06:49:51.899Z,100473.44
2024-04-19T06:52:18.371Z,100469.19
2024-04-19T06:54:44.912Z,100472.34
2024-04-19T06:57:11.770Z,100449.84
2024-04-19T06:59:41.080Z,100444.28
2024-04-19T07:02:07.693Z,100463.09
2024-04-19T07:04:34.302Z,100448.53
2024-04-19T07:07:01.011Z,100436.56
2024-04-19T07:09:27.630Z,100444.66
2024-04-19T07:11:54.218Z,100436.69
2024-04-19T07:14:21.772Z,100427.41
2024-04-19T07:16:48.313Z,100428.53
2024-04-19T07:19:14.875Z,100428.41
2024-04-19T07:21:41.746Z,100423.84
2024-04-19T07:24:08.553Z,100426.97
2024-04-19T07:26:38.971Z,100433.47
2024-04-19T07:29:06.471Z,100420.63
2024-04-19T07:31:33.430Z,100404.16
2024-04-19T07:33:59.932Z,100418.78
2024-04-19T07:36:26.500Z,100410.00
2024-04-19T07:38:53.650Z,100412.44
2024-04-19T07:41:20.162Z,100413.00
2024-04-19T07:43:52.872Z,100412.50
2024-04-19T07:46:22.658Z,100407.38
2024-04-19T07:48:49.464Z,100394.09
2024-04-19T07:51:19.149Z,100383.75
2024-04-19T07:53:45.710Z,100391.75
2024-04-19T07:56:12.219Z,100390.75
2024-04-19T07:58:38.723Z,100394.72
2024-04-19T08:01:05.666Z,100399.63
2024-04-19T08:03:32.486Z,100391.25
2024-04-19T08:05:59.026Z,100381.16
2024-04-19T08:08:25.593Z,100362.41
2024-04-19T08:10:52.092Z,100373.25
2024-04-19T08:13:18.661Z,100374.22
2024-04-19T08:15:45.609Z,100358.09
2024-04-19T08:18:12.234Z,100363.63
2024-04-19T08:20:38.766Z,100358.34
2024-04-19T08:23:05.340Z,100374.16
2024-04-19T08:25:31.949Z,100374.53
2024-04-19T08:27:58.505Z,100371.38
2024-04-19T08:30:25.541Z,100359.56
2024-04-19T08:32:52.191Z,100366.66
2024-04-19T08:35:18.690Z,100362.56
2024-04-19T08:37:45.190Z,100355.59
2024-04-19T08:40:13.834Z,100356.72
2024-04-19T08:42:40.638Z,100364.00
2024-04-19T08:45:09.238Z,100345.97
2024-04-19T08:47:36.987Z,100351.88
2024-04-19T08:50:04.412Z,100345.69
2024-04-19T08:52:50.561Z,100345.69
2024-04-19T08:55:20.510Z,100332.28
2024-04-19T08:57:47.497Z,100338.75
2024-04-19T09:00:16.140Z,100338.72
2024-04-19T09:02:44.452Z,100339.81
2024-04-19T09:05:11.112Z,100335.69
2024-04-19T09:07:38.080Z,100334.47
2024-04-19T09:10:06.341Z,100315.38
2024-04-19T09:12:34.721Z,100326.19
2024-04-19T09:15:02.036Z,100331.56
2024-04-19T09:17:29.460Z,100329.66
2024-04-19T09:19:58.110Z,100321.09
2024-04-19T09:22:24.852Z,100324.50
2024-04-19T09:24:54.602Z,100328.91
2024-04-19T09:27:25.248Z,100307.94
2024-04-19T09:29:52.488Z,100318.94
2024-04-19T09:32:22.852Z,100313.78
2024-04-19T09:34:52.411Z,100305.84
2024-04-19T09:37:18.946Z,100296.47
2024-04-19T09:39:45.657Z,100294.56
2024-04-19T09:42:12.343Z,100291.84
2024-04-19T09:44:41.869Z,100306.69
2024-04-19T09:47:11.241Z,100307.25
2024-04-19T09:49:44.198Z,100290.09
2024-04-19T09:52:20.158Z,100285.47
2024-04-19T09:54:47.941Z,100284.69
2024-04-19T09:57:18.210Z,100281.28
2024-04-19T09:59:45.861Z,100267.59
2024-04-19T10:02:20.775Z,100277.69
2024-04-19T10:04:55.736Z,100256.59
2024-04-19T10:07:22.716Z,100275.28
2024-04-19T10:09:49.783Z,100267.81
2024-04-19T10:12:19.538Z,100247.84
2024-04-19T10:14:46.423Z,100253.66
2024-04-19T10:17:13.169Z,100252.13
2024-04-19T10:19:49.669Z,100258.03
2024-04-19T10:22:22.470Z,100239.41
2024-04-19T10:25:09.287Z,100237.50
2024-04-19T10:27:35.988Z,100231.19
2024-04-19T10:30:09.605Z,100234.22
2024-04-19T10:32:40.330Z,100231.72
2024-04-19T10:35:12.147Z,100221.16
2024-04-19T10:37:38.653Z,100214.84
2024-04-19T10:40:08.875Z,100208.75
2024-04-19T10:42:35.483Z,100199.38
2024-04-19T10:45:02.617Z,100197.56
2024-04-19T10:47:29.161Z,100197.34
2024-04-19T10:49:55.811Z,100187.50
2024-04-19T10:52:23.915Z,100190.06
2024-04-19T10:54:50.564Z,100201.38
2024-04-19T10:57:17.175Z,100176.16
2024-04-19T10:59:44.533Z,100177.88
2024-04-19T11:02:11.674Z,100166.78
2024-04-19T11:04:38.564Z,100172.38
2024-04-19T11:07:05.228Z,100182.34
2024-04-19T11:09:33.435Z,100200.88
2024-04-19T11:12:00.397Z,100199.34
2024-04-19T11:14:29.349Z,100189.13
2024-04-19T11:16:55.883Z,100194.91
2024-04-19T11:19:23.224Z,100200.59
2024-04-19T11:21:50.504Z,100186.00
2024-04-19T11:24:20.050Z,100183.75
2024-04-19T11:26:47.767Z,100193.88
2024-04-19T11:29:14.609Z,100191.81
2024-04-19T11:31:41.332Z,100184.25
2024-04-19T11:34:07.988Z,100189.63
2024-04-19T11:36:36.047Z,100172.28
2024-04-19T11:39:02.775Z,100172.34
2024-04-19T11:41:29.376Z,100192.22
2024-04-19T11:44:00.527Z,100173.59
2024-04-19T11:46:29.713Z,100167.13
2024-04-19T11:49:00.066Z,100187.66
2024-04-19T11:51:27.097Z,100171.97
2024-04-19T11:53:53.699Z,100196.97
2024-04-19T11:56:20.179Z,100177.72
2024-04-19T11:58:53.331Z,100164.38
2024-04-19T12:01:20.252Z,100154.53
2024-04-19T12:03:46.837Z,100179.75
2024-04-19T12:06:13.455Z,100180.69
2024-04-19T12:08:40.642Z,100180.00
2024-04-19T12:11:07.314Z,100164.03
2024-04-19T12:14:23.223Z,100180.38
2024-04-19T12:16:38.163Z,100175.88
2024-04-19T12:19:07.373Z,100188.03
2024-04-19T12:21:34.600Z,100185.69
2024-04-19T12:24:03.938Z,100169.88
2024-04-19T12:26:32.562Z,100187.16
2024-04-19T12:28:59.393Z,100199.16
2024-04-19T12:31:26.078Z,100211.88
2024-04-19T12:33:52.839Z,100222.50
2024-04-19T12:36:19.556Z,100215.81
2024-04-19T12:38:46.096Z,100207.72
2024-04-19T12:41:12.633Z,100188.44
2024-04-19T12:43:39.549Z,100218.31
2024-04-19T12:46:06.140Z,100215.81
2024-04-19T12:48:32.834Z,100202.94
2024-04-19T12:50:59.422Z,100212.41
2024-04-19T12:53:26.216Z,100197.63
2024-04-19T12:55:52.981Z,100187.81
2024-04-19T12:58:19.811Z,100178.81
2024-04-19T13:00:49.393Z,100185.13
2024-04-19T13:03:15.968Z,100197.22
2024-04-19T13:05:42.702Z,100192.50
2024-04-19T13:08:09.328Z,100224.41
2024-04-19T13:10:39.821Z,100213.75
2024-04-19T13:13:09.340Z,100225.72
2024-04-19T13:15:35.903Z,100202.66
2024-04-19T13:18:03.337Z,100186.06
2024-04-19T13:20:30.916Z,100169.75
2024-04-19T13:22:57.424Z,100168.38
2024-04-19T13:25:23.942Z,100166.69
2024-04-19T13:27:50.540Z,100166.06
2024-04-19T13:30:17.152Z,100180.34
2024-04-19T13:32:43.675Z,100184.22
2024-04-19T13:35:10.197Z,100177.00
2024-04-19T13:37:36.736Z,100179.41
2024-04-19T13:40:03.339Z,100183.03
2024-04-19T13:42:29.932Z,100177.63
2024-04-19T13:44:56.496Z,100179.75
2024-04-19T13:47:23.146Z,100171.56
2024-04-19T13:49:49.700Z,100176.53
2024-04-19T13:52:16.201Z,100194.84
2024-04-19T13:54:42.954Z,100210.16
2024-04-19T13:57:09.972Z,100256.59
2024-04-19T13:59:36.570Z,100269.81
2024-04-19T14:02:03.117Z,100278.59
2024-04-19T14:04:29.759Z,100259.66
2024-04-19T14:06:57.033Z,100265.59
2024-04-19T14:09:24.023Z,100277.22
2024-04-19T14:11:50.538Z,100289.75
2024-04-19T14:14:17.149Z,100280.19
2024-04-19T14:16:43.657Z,100258.09
2024-04-19T14:19:10.675Z,100269.13
2024-04-19T14:21:37.174Z,100253.41
2024-04-19T14:24:03.731Z,100233.97
2024-04-19T14:26:30.442Z,100243.88
2024-04-19T14:28:56.923Z,100243.47
2024-04-19T14:31:23.767Z,100244.84
2024-04-19T14:33:50.358Z,100249.91
2024-04-19T14:36:17.034Z,100247.50
2024-04-19T14:38:43.514Z,100257.78
2024-04-19T14:41:10.084Z,100250.59
2024-04-19T14:43:41.225Z,100261.91
2024-04-19T14:46:09.484Z,100268.31
2024-04-19T14:48:36.374Z,100260.06
2024-04-19T14:51:03.503Z,100249.59
2024-04-19T14:53:30.016Z,100243.69
2024-04-19T14:55:58.358Z,100266.34
2024-04-19T14:58:24.884Z,100310.56
2024-04-19T15:00:51.836Z,100318.97
2024-04-19T15:03:18.515Z,100291.47
2024-04-19T15:05:45.091Z,100288.09
2024-04-19T15:08:11.630Z,100308.59
2024-04-19T15:10:40.045Z,100312.34
2024-04-19T15:13:06.884Z,100327.06
2024-04-19T15:15:33.694Z,100326.75
2024-04-19T15:18:00.530Z,100296.19
2024-04-19T15:20:27.177Z,100301.22
2024-04-19T15:22:58.370Z,100307.53
2024-04-19T15:25:25.641Z,100316.56
2024-04-19T15:27:52.177Z,100317.06
2024-04-19T15:30:18.745Z,100309.69
2024-04-19T15:32:47.512Z,100325.28
2024-04-19T15:35:14.292Z,100326.44
2024-04-19T15:37:41.152Z,100329.81
2024-04-19T15:40:08.629Z,100338.03
2024-04-19T15:42:35.431Z,100340.00
2024-04-19T15:45:01.981Z,100333.34
2024-04-19T15:47:28.567Z,100330.19
2024-04-19T15:49:55.155Z,100344.28
2024-04-19T15:52:24.507Z,100339.28
2024-04-19T15:54:52.737Z,100326.72
2024-04-19T15:57:19.791Z,100337.91
2024-04-19T15:59:46.301Z,100337.09
2024-04-19T16:02:13.990Z,100335.41
2024-04-19T16:04:40.744Z,100321.88
2024-04-19T16:07:07.448Z,100319.97
2024-04-19T16:09:33.983Z,100331.66
2024-04-19T16:12:01.128Z,100328.31
2024-04-19T16:14:27.744Z,100332.84
2024-04-19T16:16:54.237Z,100345.44
2024-04-19T16:19:20.904Z,100337.00
2024-04-19T16:21:47.470Z,100342.31
2024-04-19T16:24:14.220Z,100331.03
2024-04-19T16:26:40.784Z,100336.19
2024-04-19T16:29:07.318Z,100334.84
2024-04-19T16:31:33.837Z,100349.88
2024-04-19T16:34:00.488Z,100357.00
2024-04-19T16:36:27.169Z,100353.19
2024-04-19T16:38:55.698Z,100349.72
2024-04-19T16:41:22.617Z,100357.56
2024-04-19T16:43:49.140Z,100370.13
2024-04-19T16:46:15.706Z,100364.53
2024-04-19T16:48:42.283Z,100358.16
2024-04-19T16:51:08.869Z,100364.84
2024-04-19T16:53:35.400Z,100366.78
2024-04-19T16:56:04.395Z,100372.03
2024-04-19T16:58:31.299Z,100366.53
2024-04-19T17:00:57.974Z,100381.06
2024-04-19T17:03:24.631Z,100381.16
2024-04-19T17:05:51.186Z,100385.97
2024-04-19T17:08:17.714Z,100389.03
2024-04-19T17:10:44.320Z,100393.78
2024-04-19T17:13:10.891Z,100401.84
2024-04-19T17:15:37.512Z,100400.78
2024-04-19T17:18:04.871Z,100395.75
2024-04-19T17:20:31.693Z,100408.88
2024-04-19T17:22:58.261Z,100399.78
2024-04-19T17:25:24.914Z,100413.63
2024-04-19T17:27:51.586Z,100430.16
2024-04-19T17:30:22.913Z,100417.97
2024-04-19T17:32:49.617Z,100421.44
2024-04-19T17:35:16.302Z,100412.84
2024-04-19T17:37:44.419Z,100424.94
2024-04-19T17:40:11.213Z,100418.84
2024-04-19T17:42:38.087Z,100434.59
2024-04-19T17:45:04.919Z,100443.22
2024-04-19T17:47:32.126Z,100443.44
2024-04-19T17:49:58.878Z,100443.28
2024-04-19T17:52:25.384Z,100442.00
2024-04-19T17:54:51.962Z,100445.28
2024-04-19T17:57:18.524Z,100457.78
2024-04-19T17:59:45.010Z,100461.16
2024-04-19T18:02:12.556Z,100459.84
2024-04-19T18:04:40.768Z,100485.97
2024-04-19T18:07:07.500Z,100482.53
2024-04-19T18:09:34.140Z,100485.41
2024-04-19T18:12:00.631Z,100485.66
2024-04-19T18:14:27.184Z,100490.41
2024-04-19T18:16:56.436Z,100496.03
2024-04-19T18:19:26.661Z,100496.94
2024-04-19T18:21:53.686Z,100497.63
2024-04-19T18:24:24.437Z,100498.75
2024-04-19T18:26:50.983Z,100509.50
2024-04-19T18:29:17.520Z,100509.66
2024-04-19T18:31:44.104Z,100515.16
2024-04-19T18:34:16.851Z,100518.81
2024-04-19T18:36:45.887Z,100523.88
2024-04-19T18:39:13.062Z,100521.38
2024-04-19T18:41:40.171Z,100528.28
2024-04-19T18:44:06.840Z,100539.13
2024-04-19T18:46:33.433Z,100532.69
2024-04-19T18:49:00.201Z,100557.63
2024-04-19T18:51:27.283Z,100544.00
2024-04-19T18:53:57.682Z,100552.09
2024-04-19T18:56:24.176Z,100549.81
2024-04-19T18:58:50.693Z,100553.25
2024-04-19T19:01:19.650Z,100550.69
2024-04-19T19:03:47.847Z,100557.47
2024-04-19T19:06:15.411Z,100560.78
2024-04-19T19:08:42.156Z,100567.88
2024-04-19T19:11:13.707Z,100582.47
2024-04-19T19:13:42.907Z,100579.03
2024-04-19T19:16:10.029Z,100592.19
2024-04-19T19:18:36.647Z,100604.84
2024-04-19T19:21:03.387Z,100612.22
2024-04-19T19:23:31.325Z,100613.97
2024-04-19T19:25:59.716Z,100617.34
2024-04-19T19:28:28.037Z,100599.97
2024-04-19T19:30:57.606Z,100597.09
2024-04-19T19:33:24.643Z,100605.97
2024-04-19T19:35:57.783Z,100616.63
2024-04-19T19:38:24.594Z,100617.50
2024-04-19T19:40:51.137Z,100614.31
2024-04-19T19:43:20.929Z,100637.13
2024-04-19T19:45:58.621Z,100627.16
2024-04-19T19:48:28.309Z,100611.28
2024-04-19T19:50:59.885Z,100622.97
2024-04-19T19:53:27.477Z,100628.56
2024-04-19T19:55:54.381Z,100626.94
2024-04-19T19:58:21.232Z,100623.19
2024-04-19T20:01:09.498Z,100631.53
2024-04-19T20:03:55.029Z,100630.66
2024-04-19T20:06:22.490Z,100642.56
2024-04-19T20:08:49.037Z,100645.78
2024-04-19T20:11:15.699Z,100658.34
2024-04-19T20:13:42.286Z,100656.28
2024-04-19T20:16:09.312Z,100655.38
2024-04-19T20:18:39.200Z,100668.44
2024-04-19T20:21:05.783Z,100670.19
2024-04-19T20:23:32.474Z,100682.47
2024-04-19T20:25:59.162Z,100680.44
2024-04-19T20:28:25.645Z,100662.97
2024-04-19T20:30:52.221Z,100688.47
2024-04-19T20:33:18.835Z,100689.78
2024-04-19T20:35:45.692Z,100679.69
2024-04-19T20:38:12.302Z,100664.47
2024-04-19T20:40:39.062Z,100658.94
2024-04-19T20:43:15.156Z,100675.63
2024-04-19T20:45:46.925Z,100692.66
2024-04-19T20:48:13.653Z,100699.47
2024-04-19T20:50:40.297Z,100692.66
2024-04-19T20:53:06.827Z,100700.84
2024-04-19T20:55:37.812Z,100705.63
2024-04-19T20:58:04.615Z,100699.19
2024-04-19T21:00:33.049Z,100711.66
2024-04-19T21:03:01.281Z,100720.03
2024-04-19T21:05:27.818Z,100720.88
2024-04-19T21:07:54.556Z,100723.75
2024-04-19T21:10:21.793Z,100727.97
2024-04-19T21:12:48.351Z,100722.50
2024-04-19T21:15:17.116Z,100735.72
2024-04-19T21:17:44.542Z,100737.03
2024-04-19T21:20:11.331Z,100738.81
2024-04-19T21:22:37.825Z,100738.88
2024-04-19T21:25:05.614Z,100744.97
2024-04-19T21:27:33.193Z,100742.50
2024-04-19T21:30:00.144Z,100744.09
2024-04-19T21:32:26.803Z,100744.16
2024-04-19T21:34:53.358Z,100751.03
2024-04-19T21:37:20.541Z,100744.88
2024-04-19T21:39:47.153Z,100750.66
2024-04-19T21:42:15.894Z,100767.75
2024-04-19T21:44:42.648Z,100753.53
2024-04-19T21:47:09.413Z,100760.22
2024-04-19T21:49:35.974Z,100769.13
2024-04-19T21:52:04.129Z,100751.31
2024-04-19T21:54:30.843Z,100761.88
2024-04-19T21:56:57.357Z,100763.38
2024-04-19T21:59:23.859Z,100770.13
2024-04-19T22:01:50.387Z,100774.59
2024-04-19T22:04:16.927Z,100775.63
2024-04-19T22:06:43.469Z,100769.03
2024-04-19T22:09:10.097Z,100774.88
2024-04-19T22:11:36.576Z,100778.47
2024-04-19T22:14:03.073Z,100781.09
2024-04-19T22:16:29.563Z,100785.63
2024-04-19T22:18:56.184Z,100778.03
2024-04-19T22:21:22.715Z,100783.59
2024-04-19T22:23:49.538Z,100780.22
2024-04-19T22:26:16.102Z,100784.53
2024-04-19T22:28:42.764Z,100801.53
2024-04-19T22:31:11.126Z,100804.69
2024-04-19T22:33:37.716Z,100803.47
2024-04-19T22:36:10.221Z,100811.91
2024-04-19T22:38:37.521Z,100803.56
2024-04-19T22:41:04.452Z,100801.91
2024-04-19T22:43:33.586Z,100816.66
2024-04-19T22:46:05.592Z,100808.78
2024-04-19T22:48:33.292Z,100813.94
2024-04-19T22:50:59.908Z,100808.91
2024-04-19T22:53:26.418Z,100821.09
2024-04-19T22:55:55.158Z,100813.88
2024-04-19T22:58:21.859Z,100816.13
2024-04-19T23:00:48.527Z,100816.78
2024-04-19T23:03:15.444Z,100811.38
2024-04-19T23:05:42.021Z,100815.41
2024-04-19T23:08:10.781Z,100822.47
2024-04-19T23:10:37.687Z,100825.28
2024-04-19T23:13:06.209Z,100826.19
2024-04-19T23:15:34.341Z,100830.09
2024-04-19T23:18:01.071Z,100822.00
2024-04-19T23:20:27.667Z,100823.78
2024-04-19T23:22:54.865Z,100841.66
2024-04-19T23:25:21.343Z,100843.25
2024-04-19T23:27:48.983Z,100839.13
2024-04-19T23:30:15.555Z,100834.31
2024-04-19T23:32:42.166Z,100835.81
2024-04-19T23:35:08.699Z,100839.56
2024-04-19T23:37:37.336Z,100830.34
2024-04-19T23:40:04.429Z,100852.25
2024-04-19T23:42:31.061Z,100845.59
2024-04-19T23:44:57.609Z,100852.06
2024-04-19T23:47:26.097Z,100849.72
2024-04-19T23:49:52.690Z,100843.63
2024-04-19T23:52:19.227Z,100860.19
2024-04-19T23:54:46.591Z,100857.16
2024-04-19T23:57:13.247Z,100855.53
2024-04-19T23:59:39.774Z,100851.69
